sensor_id;sensor_type;location;lat;lon;timestamp;P1;durP1;ratioP1;P2;durP2;ratioP2
10643;SDS011;5370;50.132;8.626;2023-04-16T00:01:59;6.97;;;5.53;;
10643;SDS011;5370;50.132;8.626;2023-04-16T00:04:25;7.50;;;6.10;;
10643;SDS011;5370;50.132;8.626;2023-04-16T00:06:51;7.63;;;5.93;;
10643;SDS011;5370;50.132;8.626;2023-04-16T00:09:16;7.43;;;5.97;;
10643;SDS011;5370;50.132;8.626;2023-04-16T00:11:42;8.73;;;5.83;;
10643;SDS011;5370;50.132;8.626;2023-04-16T00:14:07;7.27;;;5.43;;
10643;SDS011;5370;50.132;8.626;2023-04-16T00:16:33;5.80;;;5.20;;
10643;SDS011;5370;50.132;8.626;2023-04-16T00:18:58;7.97;;;6.10;;
10643;SDS011;5370;50.132;8.626;2023-04-16T00:21:24;8.67;;;6.07;;
10643;SDS011;5370;50.132;8.626;2023-04-16T00:23:50;6.37;;;5.67;;
10643;SDS011;5370;50.132;8.626;2023-04-16T00:26:16;8.00;;;6.13;;
10643;SDS011;5370;50.132;8.626;2023-04-16T00:28:41;7.50;;;5.63;;
10643;SDS011;5370;50.132;8.626;2023-04-16T00:31:07;9.10;;;5.40;;
10643;SDS011;5370;50.132;8.626;2023-04-16T00:33:32;7.37;;;5.67;;
10643;SDS011;5370;50.132;8.626;2023-04-16T00:35:58;7.83;;;5.60;;
10643;SDS011;5370;50.132;8.626;2023-04-16T00:38:23;7.03;;;5.50;;
10643;SDS011;5370;50.132;8.626;2023-04-16T00:40:49;8.20;;;5.10;;
10643;SDS011;5370;50.132;8.626;2023-04-16T00:43:21;8.00;;;5.87;;
10643;SDS011;5370;50.132;8.626;2023-04-16T00:45:47;6.40;;;5.40;;
10643;SDS011;5370;50.132;8.626;2023-04-16T00:48:12;7.47;;;6.00;;
10643;SDS011;5370;50.132;8.626;2023-04-16T00:50:38;7.43;;;5.80;;
10643;SDS011;5370;50.132;8.626;2023-04-16T00:53:03;5.47;;;4.87;;
10643;SDS011;5370;50.132;8.626;2023-04-16T00:55:29;6.07;;;5.33;;
10643;SDS011;5370;50.132;8.626;2023-04-16T00:57:55;7.73;;;5.70;;
10643;SDS011;5370;50.132;8.626;2023-04-16T01:00:20;8.73;;;5.67;;
10643;SDS011;5370;50.132;8.626;2023-04-16T01:02:46;6.83;;;5.57;;
10643;SDS011;5370;50.132;8.626;2023-04-16T01:05:12;7.57;;;6.00;;
10643;SDS011;5370;50.132;8.626;2023-04-16T01:07:37;7.03;;;6.03;;
10643;SDS011;5370;50.132;8.626;2023-04-16T01:10:03;7.60;;;5.67;;
10643;SDS011;5370;50.132;8.626;2023-04-16T01:12:29;7.70;;;6.00;;
10643;SDS011;5370;50.132;8.626;2023-04-16T01:14:54;7.20;;;5.67;;
10643;SDS011;5370;50.132;8.626;2023-04-16T01:17:20;8.03;;;5.83;;
10643;SDS011;5370;50.132;8.626;2023-04-16T01:19:46;8.50;;;6.10;;
10643;SDS011;5370;50.132;8.626;2023-04-16T01:22:11;6.63;;;6.00;;
10643;SDS011;5370;50.132;8.626;2023-04-16T01:24:37;8.43;;;6.50;;
10643;SDS011;5370;50.132;8.626;2023-04-16T01:27:02;9.00;;;6.47;;
10643;SDS011;5370;50.132;8.626;2023-04-16T01:29:28;6.57;;;5.87;;
10643;SDS011;5370;50.132;8.626;2023-04-16T01:31:53;7.33;;;6.00;;
10643;SDS011;5370;50.132;8.626;2023-04-16T01:34:19;8.00;;;6.43;;
10643;SDS011;5370;50.132;8.626;2023-04-16T01:36:44;8.47;;;6.13;;
10643;SDS011;5370;50.132;8.626;2023-04-16T01:39:10;9.17;;;6.80;;
10643;SDS011;5370;50.132;8.626;2023-04-16T01:41:39;8.67;;;6.27;;
10643;SDS011;5370;50.132;8.626;2023-04-16T01:44:05;9.90;;;7.23;;
10643;SDS011;5370;50.132;8.626;2023-04-16T01:46:31;7.87;;;6.20;;
10643;SDS011;5370;50.132;8.626;2023-04-16T01:48:58;7.47;;;6.53;;
10643;SDS011;5370;50.132;8.626;2023-04-16T01:51:25;8.13;;;6.90;;
10643;SDS011;5370;50.132;8.626;2023-04-16T01:53:52;11.53;;;7.10;;
10643;SDS011;5370;50.132;8.626;2023-04-16T01:56:18;7.17;;;6.10;;
10643;SDS011;5370;50.132;8.626;2023-04-16T01:58:44;8.53;;;6.73;;
10643;SDS011;5370;50.132;8.626;2023-04-16T02:01:11;8.93;;;7.27;;
10643;SDS011;5370;50.132;8.626;2023-04-16T02:03:37;7.87;;;6.23;;
10643;SDS011;5370;50.132;8.626;2023-04-16T02:06:03;8.90;;;6.83;;
10643;SDS011;5370;50.132;8.626;2023-04-16T02:08:29;8.63;;;6.50;;
10643;SDS011;5370;50.132;8.626;2023-04-16T02:10:55;7.70;;;6.23;;
10643;SDS011;5370;50.132;8.626;2023-04-16T02:13:21;8.40;;;6.67;;
10643;SDS011;5370;50.132;8.626;2023-04-16T02:15:47;8.30;;;6.80;;
10643;SDS011;5370;50.132;8.626;2023-04-16T02:18:14;9.00;;;6.80;;
10643;SDS011;5370;50.132;8.626;2023-04-16T02:20:44;7.57;;;6.20;;
10643;SDS011;5370;50.132;8.626;2023-04-16T02:23:10;8.63;;;6.70;;
10643;SDS011;5370;50.132;8.626;2023-04-16T02:25:43;7.40;;;6.37;;
10643;SDS011;5370;50.132;8.626;2023-04-16T02:28:11;9.63;;;6.63;;
10643;SDS011;5370;50.132;8.626;2023-04-16T02:30:39;8.47;;;6.53;;
10643;SDS011;5370;50.132;8.626;2023-04-16T02:33:05;8.43;;;6.60;;
10643;SDS011;5370;50.132;8.626;2023-04-16T02:35:36;7.50;;;6.70;;
10643;SDS011;5370;50.132;8.626;2023-04-16T02:38:02;8.17;;;7.13;;
10643;SDS011;5370;50.132;8.626;2023-04-16T02:40:28;9.40;;;6.73;;
10643;SDS011;5370;50.132;8.626;2023-04-16T02:42:54;8.87;;;7.00;;
10643;SDS011;5370;50.132;8.626;2023-04-16T02:45:21;11.40;;;6.93;;
10643;SDS011;5370;50.132;8.626;2023-04-16T02:47:47;9.80;;;7.30;;
10643;SDS011;5370;50.132;8.626;2023-04-16T02:50:14;8.97;;;7.33;;
10643;SDS011;5370;50.132;8.626;2023-04-16T02:52:39;9.27;;;7.83;;
10643;SDS011;5370;50.132;8.626;2023-04-16T02:55:05;9.27;;;7.00;;
10643;SDS011;5370;50.132;8.626;2023-04-16T02:57:31;10.30;;;7.13;;
10643;SDS011;5370;50.132;8.626;2023-04-16T02:59:57;8.50;;;6.97;;
10643;SDS011;5370;50.132;8.626;2023-04-16T03:02:22;8.97;;;6.63;;
10643;SDS011;5370;50.132;8.626;2023-04-16T03:04:48;8.23;;;7.00;;
10643;SDS011;5370;50.132;8.626;2023-04-16T03:07:13;7.70;;;6.90;;
10643;SDS011;5370;50.132;8.626;2023-04-16T03:09:39;8.83;;;7.23;;
10643;SDS011;5370;50.132;8.626;2023-04-16T03:12:04;9.57;;;7.30;;
10643;SDS011;5370;50.132;8.626;2023-04-16T03:14:30;8.07;;;6.90;;
10643;SDS011;5370;50.132;8.626;2023-04-16T03:16:56;9.17;;;7.60;;
10643;SDS011;5370;50.132;8.626;2023-04-16T03:19:22;8.97;;;7.40;;
10643;SDS011;5370;50.132;8.626;2023-04-16T03:21:48;8.73;;;7.83;;
10643;SDS011;5370;50.132;8.626;2023-04-16T03:24:13;9.73;;;7.30;;
10643;SDS011;5370;50.132;8.626;2023-04-16T03:26:39;9.53;;;7.37;;
10643;SDS011;5370;50.132;8.626;2023-04-16T03:29:04;8.17;;;7.37;;
10643;SDS011;5370;50.132;8.626;2023-04-16T03:31:30;9.97;;;7.63;;
10643;SDS011;5370;50.132;8.626;2023-04-16T03:33:56;9.30;;;7.23;;
10643;SDS011;5370;50.132;8.626;2023-04-16T03:36:21;8.40;;;7.43;;
10643;SDS011;5370;50.132;8.626;2023-04-16T03:38:47;9.17;;;7.63;;
10643;SDS011;5370;50.132;8.626;2023-04-16T03:41:13;10.23;;;8.47;;
10643;SDS011;5370;50.132;8.626;2023-04-16T03:43:39;9.60;;;7.93;;
10643;SDS011;5370;50.132;8.626;2023-04-16T03:46:04;10.80;;;8.57;;
10643;SDS011;5370;50.132;8.626;2023-04-16T03:48:30;9.63;;;6.97;;
10643;SDS011;5370;50.132;8.626;2023-04-16T03:50:55;8.90;;;7.40;;
10643;SDS011;5370;50.132;8.626;2023-04-16T03:53:21;10.40;;;8.23;;
10643;SDS011;5370;50.132;8.626;2023-04-16T03:55:50;8.07;;;6.77;;
10643;SDS011;5370;50.132;8.626;2023-04-16T03:58:16;9.40;;;8.00;;
10643;SDS011;5370;50.132;8.626;2023-04-16T04:00:42;9.70;;;7.53;;
10643;SDS011;5370;50.132;8.626;2023-04-16T04:03:08;10.03;;;8.67;;
10643;SDS011;5370;50.132;8.626;2023-04-16T04:05:35;11.07;;;8.67;;
10643;SDS011;5370;50.132;8.626;2023-04-16T04:08:02;10.23;;;8.33;;
10643;SDS011;5370;50.132;8.626;2023-04-16T04:10:27;11.63;;;8.37;;
10643;SDS011;5370;50.132;8.626;2023-04-16T04:12:55;10.57;;;8.20;;
10643;SDS011;5370;50.132;8.626;2023-04-16T04:15:21;11.53;;;8.53;;
10643;SDS011;5370;50.132;8.626;2023-04-16T04:17:46;10.63;;;8.67;;
10643;SDS011;5370;50.132;8.626;2023-04-16T04:20:12;10.33;;;7.93;;
10643;SDS011;5370;50.132;8.626;2023-04-16T04:22:37;10.53;;;7.97;;
10643;SDS011;5370;50.132;8.626;2023-04-16T04:25:03;9.70;;;7.90;;
10643;SDS011;5370;50.132;8.626;2023-04-16T04:27:29;9.70;;;8.10;;
10643;SDS011;5370;50.132;8.626;2023-04-16T04:29:55;9.30;;;8.03;;
10643;SDS011;5370;50.132;8.626;2023-04-16T04:32:21;9.17;;;7.97;;
10643;SDS011;5370;50.132;8.626;2023-04-16T04:34:47;9.57;;;8.20;;
10643;SDS011;5370;50.132;8.626;2023-04-16T04:37:12;9.40;;;7.43;;
10643;SDS011;5370;50.132;8.626;2023-04-16T04:39:38;12.20;;;8.43;;
10643;SDS011;5370;50.132;8.626;2023-04-16T04:42:03;10.37;;;7.97;;
10643;SDS011;5370;50.132;8.626;2023-04-16T04:44:29;8.30;;;7.17;;
10643;SDS011;5370;50.132;8.626;2023-04-16T04:46:55;9.27;;;7.53;;
10643;SDS011;5370;50.132;8.626;2023-04-16T04:49:20;8.47;;;6.93;;
10643;SDS011;5370;50.132;8.626;2023-04-16T04:51:46;9.73;;;7.80;;
10643;SDS011;5370;50.132;8.626;2023-04-16T04:54:12;10.37;;;7.33;;
10643;SDS011;5370;50.132;8.626;2023-04-16T04:56:37;8.13;;;6.97;;
10643;SDS011;5370;50.132;8.626;2023-04-16T04:59:03;7.97;;;7.17;;
10643;SDS011;5370;50.132;8.626;2023-04-16T05:01:28;8.63;;;7.17;;
10643;SDS011;5370;50.132;8.626;2023-04-16T05:03:54;9.03;;;6.73;;
10643;SDS011;5370;50.132;8.626;2023-04-16T05:06:20;7.93;;;6.43;;
10643;SDS011;5370;50.132;8.626;2023-04-16T05:08:45;8.70;;;6.47;;
10643;SDS011;5370;50.132;8.626;2023-04-16T05:11:11;7.57;;;6.30;;
10643;SDS011;5370;50.132;8.626;2023-04-16T05:13:36;7.17;;;6.30;;
10643;SDS011;5370;50.132;8.626;2023-04-16T05:16:02;7.33;;;6.20;;
10643;SDS011;5370;50.132;8.626;2023-04-16T05:18:27;6.93;;;6.13;;
10643;SDS011;5370;50.132;8.626;2023-04-16T05:20:53;6.57;;;5.80;;
10643;SDS011;5370;50.132;8.626;2023-04-16T05:23:19;7.93;;;5.47;;
10643;SDS011;5370;50.132;8.626;2023-04-16T05:25:45;8.07;;;5.80;;
10643;SDS011;5370;50.132;8.626;2023-04-16T05:28:10;5.73;;;5.13;;
10643;SDS011;5370;50.132;8.626;2023-04-16T05:30:36;7.77;;;6.20;;
10643;SDS011;5370;50.132;8.626;2023-04-16T05:33:01;9.37;;;6.63;;
10643;SDS011;5370;50.132;8.626;2023-04-16T05:35:27;6.23;;;5.63;;
10643;SDS011;5370;50.132;8.626;2023-04-16T05:37:53;7.07;;;6.20;;
10643;SDS011;5370;50.132;8.626;2023-04-16T05:40:18;7.63;;;6.17;;
10643;SDS011;5370;50.132;8.626;2023-04-16T05:42:44;8.37;;;7.13;;
10643;SDS011;5370;50.132;8.626;2023-04-16T05:45:10;9.60;;;6.43;;
10643;SDS011;5370;50.132;8.626;2023-04-16T05:47:35;8.03;;;6.43;;
10643;SDS011;5370;50.132;8.626;2023-04-16T05:50:01;7.10;;;6.33;;
10643;SDS011;5370;50.132;8.626;2023-04-16T05:52:26;8.97;;;6.77;;
10643;SDS011;5370;50.132;8.626;2023-04-16T05:54:52;11.13;;;7.33;;
10643;SDS011;5370;50.132;8.626;2023-04-16T05:57:17;7.83;;;6.50;;
10643;SDS011;5370;50.132;8.626;2023-04-16T05:59:43;9.47;;;6.20;;
10643;SDS011;5370;50.132;8.626;2023-04-16T06:02:08;6.27;;;5.67;;
10643;SDS011;5370;50.132;8.626;2023-04-16T06:04:34;9.23;;;7.13;;
10643;SDS011;5370;50.132;8.626;2023-04-16T06:07:00;7.80;;;6.43;;
10643;SDS011;5370;50.132;8.626;2023-04-16T06:09:25;7.97;;;6.70;;
10643;SDS011;5370;50.132;8.626;2023-04-16T06:11:51;8.53;;;6.60;;
10643;SDS011;5370;50.132;8.626;2023-04-16T06:14:16;8.37;;;6.30;;
10643;SDS011;5370;50.132;8.626;2023-04-16T06:16:42;7.90;;;5.33;;
10643;SDS011;5370;50.132;8.626;2023-04-16T06:19:08;6.53;;;5.93;;
10643;SDS011;5370;50.132;8.626;2023-04-16T06:21:33;7.57;;;6.07;;
10643;SDS011;5370;50.132;8.626;2023-04-16T06:23:59;7.83;;;6.53;;
10643;SDS011;5370;50.132;8.626;2023-04-16T06:26:25;7.57;;;6.77;;
10643;SDS011;5370;50.132;8.626;2023-04-16T06:28:50;7.83;;;5.87;;
10643;SDS011;5370;50.132;8.626;2023-04-16T06:31:16;7.07;;;6.17;;
10643;SDS011;5370;50.132;8.626;2023-04-16T06:33:41;7.47;;;5.90;;
10643;SDS011;5370;50.132;8.626;2023-04-16T06:36:07;7.67;;;6.17;;
10643;SDS011;5370;50.132;8.626;2023-04-16T06:38:33;6.13;;;5.53;;
10643;SDS011;5370;50.132;8.626;2023-04-16T06:40:58;6.00;;;5.33;;
10643;SDS011;5370;50.132;8.626;2023-04-16T06:43:24;8.13;;;5.03;;
10643;SDS011;5370;50.132;8.626;2023-04-16T06:45:50;6.43;;;5.60;;
10643;SDS011;5370;50.132;8.626;2023-04-16T06:48:16;5.47;;;4.80;;
10643;SDS011;5370;50.132;8.626;2023-04-16T06:50:41;5.33;;;4.83;;
10643;SDS011;5370;50.132;8.626;2023-04-16T06:53:07;6.00;;;4.80;;
10643;SDS011;5370;50.132;8.626;2023-04-16T06:55:32;5.83;;;5.23;;
10643;SDS011;5370;50.132;8.626;2023-04-16T06:57:58;6.40;;;5.80;;
10643;SDS011;5370;50.132;8.626;2023-04-16T07:00:23;5.63;;;5.13;;
10643;SDS011;5370;50.132;8.626;2023-04-16T07:02:49;6.13;;;5.53;;
10643;SDS011;5370;50.132;8.626;2023-04-16T07:05:15;6.00;;;5.17;;
10643;SDS011;5370;50.132;8.626;2023-04-16T07:07:40;5.90;;;4.90;;
10643;SDS011;5370;50.132;8.626;2023-04-16T07:10:06;7.30;;;5.67;;
10643;SDS011;5370;50.132;8.626;2023-04-16T07:12:32;5.80;;;4.53;;
10643;SDS011;5370;50.132;8.626;2023-04-16T07:14:57;6.97;;;5.40;;
10643;SDS011;5370;50.132;8.626;2023-04-16T07:17:23;7.00;;;5.40;;
10643;SDS011;5370;50.132;8.626;2023-04-16T07:19:50;5.67;;;5.17;;
10643;SDS011;5370;50.132;8.626;2023-04-16T07:22:16;8.73;;;5.47;;
10643;SDS011;5370;50.132;8.626;2023-04-16T07:24:41;6.30;;;5.33;;
10643;SDS011;5370;50.132;8.626;2023-04-16T07:27:07;6.57;;;5.30;;
10643;SDS011;5370;50.132;8.626;2023-04-16T07:29:32;6.50;;;5.90;;
10643;SDS011;5370;50.132;8.626;2023-04-16T07:31:58;6.67;;;5.97;;
10643;SDS011;5370;50.132;8.626;2023-04-16T07:34:23;7.70;;;6.03;;
10643;SDS011;5370;50.132;8.626;2023-04-16T07:36:49;6.67;;;5.97;;
10643;SDS011;5370;50.132;8.626;2023-04-16T07:39:15;8.70;;;6.67;;
10643;SDS011;5370;50.132;8.626;2023-04-16T07:41:40;7.47;;;6.30;;
10643;SDS011;5370;50.132;8.626;2023-04-16T07:44:07;7.57;;;6.57;;
10643;SDS011;5370;50.132;8.626;2023-04-16T07:46:32;7.77;;;6.97;;
10643;SDS011;5370;50.132;8.626;2023-04-16T07:48:58;8.63;;;6.60;;
10643;SDS011;5370;50.132;8.626;2023-04-16T07:51:24;8.20;;;7.40;;
10643;SDS011;5370;50.132;8.626;2023-04-16T07:53:50;8.77;;;7.57;;
10643;SDS011;5370;50.132;8.626;2023-04-16T07:56:15;9.27;;;7.30;;
10643;SDS011;5370;50.132;8.626;2023-04-16T07:58:41;11.07;;;8.07;;
10643;SDS011;5370;50.132;8.626;2023-04-16T08:01:06;9.60;;;8.07;;
10643;SDS011;5370;50.132;8.626;2023-04-16T08:03:32;10.87;;;7.50;;
10643;SDS011;5370;50.132;8.626;2023-04-16T08:05:57;9.97;;;7.20;;
10643;SDS011;5370;50.132;8.626;2023-04-16T08:08:23;7.30;;;6.50;;
10643;SDS011;5370;50.132;8.626;2023-04-16T08:10:48;7.93;;;7.13;;
10643;SDS011;5370;50.132;8.626;2023-04-16T08:13:14;10.37;;;6.90;;
10643;SDS011;5370;50.132;8.626;2023-04-16T08:15:39;8.53;;;7.20;;
10643;SDS011;5370;50.132;8.626;2023-04-16T08:18:05;10.07;;;7.27;;
10643;SDS011;5370;50.132;8.626;2023-04-16T08:20:36;9.13;;;6.83;;
10643;SDS011;5370;50.132;8.626;2023-04-16T08:23:02;8.10;;;6.90;;
10643;SDS011;5370;50.132;8.626;2023-04-16T08:25:28;8.67;;;7.37;;
10643;SDS011;5370;50.132;8.626;2023-04-16T08:27:53;8.67;;;7.47;;
10643;SDS011;5370;50.132;8.626;2023-04-16T08:30:19;9.27;;;7.47;;
10643;SDS011;5370;50.132;8.626;2023-04-16T08:32:45;8.90;;;7.40;;
10643;SDS011;5370;50.132;8.626;2023-04-16T08:35:11;10.60;;;6.83;;
10643;SDS011;5370;50.132;8.626;2023-04-16T08:37:36;8.13;;;7.33;;
10643;SDS011;5370;50.132;8.626;2023-04-16T08:40:02;8.17;;;7.27;;
10643;SDS011;5370;50.132;8.626;2023-04-16T08:42:30;8.83;;;7.77;;
10643;SDS011;5370;50.132;8.626;2023-04-16T08:47:50;11.40;;;7.83;;
10643;SDS011;5370;50.132;8.626;2023-04-16T08:50:18;9.20;;;7.80;;
10643;SDS011;5370;50.132;8.626;2023-04-16T08:52:57;11.20;;;7.93;;
10643;SDS011;5370;50.132;8.626;2023-04-16T08:55:30;10.23;;;7.43;;
10643;SDS011;5370;50.132;8.626;2023-04-16T08:58:02;8.73;;;7.10;;
10643;SDS011;5370;50.132;8.626;2023-04-16T09:00:38;9.23;;;7.37;;
10643;SDS011;5370;50.132;8.626;2023-04-16T09:03:05;9.47;;;8.23;;
10643;SDS011;5370;50.132;8.626;2023-04-16T09:05:32;9.77;;;8.03;;
10643;SDS011;5370;50.132;8.626;2023-04-16T09:07:58;9.77;;;6.57;;
10643;SDS011;5370;50.132;8.626;2023-04-16T09:10:24;9.10;;;7.67;;
10643;SDS011;5370;50.132;8.626;2023-04-16T09:12:50;10.93;;;7.70;;
10643;SDS011;5370;50.132;8.626;2023-04-16T09:15:16;11.27;;;8.43;;
10643;SDS011;5370;50.132;8.626;2023-04-16T09:17:45;10.07;;;7.67;;
10643;SDS011;5370;50.132;8.626;2023-04-16T09:20:11;9.63;;;8.33;;
10643;SDS011;5370;50.132;8.626;2023-04-16T09:22:36;9.77;;;7.47;;
10643;SDS011;5370;50.132;8.626;2023-04-16T09:25:04;9.93;;;8.30;;
10643;SDS011;5370;50.132;8.626;2023-04-16T09:27:30;12.27;;;8.80;;
10643;SDS011;5370;50.132;8.626;2023-04-16T09:29:56;8.53;;;7.60;;
10643;SDS011;5370;50.132;8.626;2023-04-16T09:32:25;11.00;;;7.77;;
10643;SDS011;5370;50.132;8.626;2023-04-16T09:34:55;9.23;;;7.53;;
10643;SDS011;5370;50.132;8.626;2023-04-16T09:37:25;8.53;;;7.50;;
10643;SDS011;5370;50.132;8.626;2023-04-16T09:40:01;10.57;;;7.30;;
10643;SDS011;5370;50.132;8.626;2023-04-16T09:42:28;10.57;;;7.90;;
10643;SDS011;5370;50.132;8.626;2023-04-16T09:44:56;9.67;;;7.43;;
10643;SDS011;5370;50.132;8.626;2023-04-16T09:47:23;9.57;;;8.20;;
10643;SDS011;5370;50.132;8.626;2023-04-16T09:50:09;8.67;;;6.93;;
10643;SDS011;5370;50.132;8.626;2023-04-16T09:52:43;9.13;;;7.13;;
10643;SDS011;5370;50.132;8.626;2023-04-16T09:55:11;6.93;;;6.23;;
10643;SDS011;5370;50.132;8.626;2023-04-16T09:57:37;8.57;;;7.67;;
10643;SDS011;5370;50.132;8.626;2023-04-16T10:00:04;7.47;;;6.67;;
10643;SDS011;5370;50.132;8.626;2023-04-16T10:02:31;9.00;;;6.53;;
10643;SDS011;5370;50.132;8.626;2023-04-16T10:04:59;8.50;;;6.93;;
10643;SDS011;5370;50.132;8.626;2023-04-16T10:07:32;8.17;;;6.43;;
10643;SDS011;5370;50.132;8.626;2023-04-16T10:09:59;9.00;;;7.10;;
10643;SDS011;5370;50.132;8.626;2023-04-16T10:12:25;9.63;;;7.10;;
10643;SDS011;5370;50.132;8.626;2023-04-16T10:14:52;7.47;;;6.20;;
10643;SDS011;5370;50.132;8.626;2023-04-16T10:17:18;8.03;;;6.80;;
10643;SDS011;5370;50.132;8.626;2023-04-16T10:19:45;8.70;;;6.63;;
10643;SDS011;5370;50.132;8.626;2023-04-16T10:22:11;11.87;;;7.20;;
10643;SDS011;5370;50.132;8.626;2023-04-16T10:24:37;7.80;;;6.20;;
10643;SDS011;5370;50.132;8.626;2023-04-16T10:27:04;9.40;;;6.40;;
10643;SDS011;5370;50.132;8.626;2023-04-16T10:29:30;9.10;;;7.43;;
10643;SDS011;5370;50.132;8.626;2023-04-16T10:31:56;9.37;;;7.60;;
10643;SDS011;5370;50.132;8.626;2023-04-16T10:34:23;10.97;;;7.07;;
10643;SDS011;5370;50.132;8.626;2023-04-16T10:36:50;10.30;;;7.20;;
10643;SDS011;5370;50.132;8.626;2023-04-16T10:39:20;9.57;;;7.00;;
10643;SDS011;5370;50.132;8.626;2023-04-16T10:42:05;10.13;;;7.90;;
10643;SDS011;5370;50.132;8.626;2023-04-16T10:44:35;11.60;;;7.27;;
10643;SDS011;5370;50.132;8.626;2023-04-16T10:47:01;11.13;;;8.33;;
10643;SDS011;5370;50.132;8.626;2023-04-16T10:49:33;9.20;;;6.90;;
10643;SDS011;5370;50.132;8.626;2023-04-16T10:52:00;6.90;;;5.87;;
10643;SDS011;5370;50.132;8.626;2023-04-16T10:54:31;8.63;;;7.50;;
10643;SDS011;5370;50.132;8.626;2023-04-16T10:57:04;8.83;;;6.40;;
10643;SDS011;5370;50.132;8.626;2023-04-16T10:59:34;8.50;;;6.20;;
10643;SDS011;5370;50.132;8.626;2023-04-16T11:02:23;8.50;;;6.00;;
10643;SDS011;5370;50.132;8.626;2023-04-16T11:04:52;9.70;;;6.40;;
10643;SDS011;5370;50.132;8.626;2023-04-16T11:07:31;9.67;;;6.93;;
10643;SDS011;5370;50.132;8.626;2023-04-16T11:10:02;9.30;;;7.20;;
10643;SDS011;5370;50.132;8.626;2023-04-16T11:12:33;11.37;;;7.67;;
10643;SDS011;5370;50.132;8.626;2023-04-16T11:15:04;9.20;;;7.17;;
10643;SDS011;5370;50.132;8.626;2023-04-16T11:17:52;8.80;;;6.83;;
10643;SDS011;5370;50.132;8.626;2023-04-16T11:20:21;10.60;;;7.53;;
10643;SDS011;5370;50.132;8.626;2023-04-16T11:22:48;9.90;;;8.27;;
10643;SDS011;5370;50.132;8.626;2023-04-16T11:25:22;10.00;;;7.70;;
10643;SDS011;5370;50.132;8.626;2023-04-16T11:27:49;11.90;;;8.63;;
10643;SDS011;5370;50.132;8.626;2023-04-16T11:30:16;9.97;;;8.40;;
10643;SDS011;5370;50.132;8.626;2023-04-16T11:32:43;10.30;;;7.87;;
10643;SDS011;5370;50.132;8.626;2023-04-16T11:35:14;9.60;;;8.23;;
10643;SDS011;5370;50.132;8.626;2023-04-16T11:37:41;11.80;;;8.90;;
10643;SDS011;5370;50.132;8.626;2023-04-16T11:40:07;12.57;;;9.70;;
10643;SDS011;5370;50.132;8.626;2023-04-16T11:42:34;9.83;;;8.57;;
10643;SDS011;5370;50.132;8.626;2023-04-16T11:45:07;10.57;;;7.80;;
10643;SDS011;5370;50.132;8.626;2023-04-16T11:47:47;12.17;;;8.67;;
10643;SDS011;5370;50.132;8.626;2023-04-16T11:50:17;11.70;;;9.13;;
10643;SDS011;5370;50.132;8.626;2023-04-16T11:52:47;11.27;;;8.57;;
10643;SDS011;5370;50.132;8.626;2023-04-16T11:55:13;10.87;;;8.53;;
10643;SDS011;5370;50.132;8.626;2023-04-16T11:57:39;13.43;;;8.97;;
10643;SDS011;5370;50.132;8.626;2023-04-16T12:00:05;11.37;;;9.47;;
10643;SDS011;5370;50.132;8.626;2023-04-16T12:02:44;12.73;;;9.03;;
10643;SDS011;5370;50.132;8.626;2023-04-16T12:05:24;11.20;;;9.13;;
10643;SDS011;5370;50.132;8.626;2023-04-16T12:07:59;12.57;;;9.93;;
10643;SDS011;5370;50.132;8.626;2023-04-16T12:10:27;10.77;;;8.43;;
10643;SDS011;5370;50.132;8.626;2023-04-16T12:12:53;9.67;;;8.40;;
10643;SDS011;5370;50.132;8.626;2023-04-16T12:15:18;13.03;;;9.53;;
10643;SDS011;5370;50.132;8.626;2023-04-16T12:17:44;10.70;;;9.00;;
10643;SDS011;5370;50.132;8.626;2023-04-16T12:20:11;16.53;;;10.20;;
10643;SDS011;5370;50.132;8.626;2023-04-16T12:22:39;10.03;;;8.83;;
10643;SDS011;5370;50.132;8.626;2023-04-16T12:25:13;10.40;;;9.30;;
10643;SDS011;5370;50.132;8.626;2023-04-16T12:27:49;10.07;;;8.27;;
10643;SDS011;5370;50.132;8.626;2023-04-16T12:30:17;11.83;;;8.43;;
10643;SDS011;5370;50.132;8.626;2023-04-16T12:32:47;11.07;;;8.37;;
10643;SDS011;5370;50.132;8.626;2023-04-16T12:35:33;12.53;;;9.53;;
10643;SDS011;5370;50.132;8.626;2023-04-16T12:37:59;12.50;;;9.57;;
10643;SDS011;5370;50.132;8.626;2023-04-16T12:40:25;11.43;;;8.83;;
10643;SDS011;5370;50.132;8.626;2023-04-16T12:42:51;11.00;;;9.80;;
10643;SDS011;5370;50.132;8.626;2023-04-16T12:45:17;13.90;;;10.73;;
10643;SDS011;5370;50.132;8.626;2023-04-16T12:47:42;11.03;;;9.90;;
10643;SDS011;5370;50.132;8.626;2023-04-16T12:50:08;11.77;;;9.60;;
10643;SDS011;5370;50.132;8.626;2023-04-16T12:52:34;11.47;;;9.47;;
10643;SDS011;5370;50.132;8.626;2023-04-16T12:55:00;10.23;;;8.50;;
10643;SDS011;5370;50.132;8.626;2023-04-16T12:57:26;11.57;;;10.23;;
10643;SDS011;5370;50.132;8.626;2023-04-16T12:59:56;12.67;;;10.30;;
10643;SDS011;5370;50.132;8.626;2023-04-16T13:02:22;12.17;;;10.13;;
10643;SDS011;5370;50.132;8.626;2023-04-16T13:04:52;11.50;;;10.30;;
10643;SDS011;5370;50.132;8.626;2023-04-16T13:07:18;13.03;;;11.33;;
10643;SDS011;5370;50.132;8.626;2023-04-16T13:09:44;12.97;;;10.90;;
10643;SDS011;5370;50.132;8.626;2023-04-16T13:12:11;14.47;;;10.97;;
10643;SDS011;5370;50.132;8.626;2023-04-16T13:14:36;15.73;;;10.60;;
10643;SDS011;5370;50.132;8.626;2023-04-16T13:17:02;15.47;;;11.33;;
10643;SDS011;5370;50.132;8.626;2023-04-16T13:19:28;15.27;;;11.90;;
10643;SDS011;5370;50.132;8.626;2023-04-16T13:21:54;14.40;;;12.27;;
10643;SDS011;5370;50.132;8.626;2023-04-16T13:24:20;15.43;;;11.00;;
10643;SDS011;5370;50.132;8.626;2023-04-16T13:26:47;16.00;;;12.17;;
10643;SDS011;5370;50.132;8.626;2023-04-16T13:29:12;16.90;;;13.35;;
10643;SDS011;5370;50.132;8.626;2023-04-16T13:31:38;15.23;;;12.80;;
10643;SDS011;5370;50.132;8.626;2023-04-16T13:34:03;15.50;;;12.80;;
10643;SDS011;5370;50.132;8.626;2023-04-16T13:36:29;18.75;;;12.35;;
10643;SDS011;5370;50.132;8.626;2023-04-16T13:38:56;15.77;;;13.23;;
10643;SDS011;5370;50.132;8.626;2023-04-16T13:41:22;14.77;;;12.77;;
10643;SDS011;5370;50.132;8.626;2023-04-16T13:43:48;14.75;;;12.00;;
10643;SDS011;5370;50.132;8.626;2023-04-16T13:46:13;14.65;;;11.23;;
10643;SDS011;5370;50.132;8.626;2023-04-16T13:48:39;14.80;;;12.63;;
10643;SDS011;5370;50.132;8.626;2023-04-16T13:51:05;16.48;;;13.40;;
10643;SDS011;5370;50.132;8.626;2023-04-16T13:53:30;15.43;;;12.70;;
10643;SDS011;5370;50.132;8.626;2023-04-16T13:55:56;16.20;;;12.18;;
10643;SDS011;5370;50.132;8.626;2023-04-16T13:58:21;15.80;;;13.15;;
10643;SDS011;5370;50.132;8.626;2023-04-16T14:00:47;16.80;;;11.65;;
10643;SDS011;5370;50.132;8.626;2023-04-16T14:03:12;17.17;;;13.07;;
10643;SDS011;5370;50.132;8.626;2023-04-16T14:05:38;15.40;;;12.80;;
10643;SDS011;5370;50.132;8.626;2023-04-16T14:08:05;16.27;;;12.43;;
10643;SDS011;5370;50.132;8.626;2023-04-16T14:10:30;17.15;;;13.05;;
10643;SDS011;5370;50.132;8.626;2023-04-16T14:12:57;19.05;;;12.45;;
10643;SDS011;5370;50.132;8.626;2023-04-16T14:15:22;15.50;;;12.77;;
10643;SDS011;5370;50.132;8.626;2023-04-16T14:17:50;18.60;;;12.23;;
10643;SDS011;5370;50.132;8.626;2023-04-16T14:20:16;14.27;;;12.40;;
10643;SDS011;5370;50.132;8.626;2023-04-16T14:22:41;17.37;;;12.60;;
10643;SDS011;5370;50.132;8.626;2023-04-16T14:25:08;18.00;;;12.93;;
10643;SDS011;5370;50.132;8.626;2023-04-16T14:27:33;17.30;;;12.27;;
10643;SDS011;5370;50.132;8.626;2023-04-16T14:29:59;18.13;;;15.00;;
10643;SDS011;5370;50.132;8.626;2023-04-16T14:32:25;16.87;;;13.00;;
10643;SDS011;5370;50.132;8.626;2023-04-16T14:34:51;18.23;;;12.90;;
10643;SDS011;5370;50.132;8.626;2023-04-16T14:37:16;16.60;;;13.00;;
10643;SDS011;5370;50.132;8.626;2023-04-16T14:39:42;15.43;;;11.97;;
10643;SDS011;5370;50.132;8.626;2023-04-16T14:42:08;15.23;;;11.20;;
10643;SDS011;5370;50.132;8.626;2023-04-16T14:44:34;19.20;;;12.17;;
10643;SDS011;5370;50.132;8.626;2023-04-16T14:47:00;12.57;;;11.27;;
10643;SDS011;5370;50.132;8.626;2023-04-16T14:49:25;14.10;;;11.23;;
10643;SDS011;5370;50.132;8.626;2023-04-16T14:51:51;13.20;;;9.90;;
10643;SDS011;5370;50.132;8.626;2023-04-16T14:54:17;11.77;;;9.83;;
10643;SDS011;5370;50.132;8.626;2023-04-16T14:56:43;10.97;;;9.07;;